createdAt,value
2018-06-28T00:00:09.286Z,0
2018-06-28T00:01:18.151Z,0
2018-06-28T00:02:27.295Z,0
2018-06-28T00:03:36.435Z,0
2018-06-28T00:04:45.348Z,0
2018-06-28T00:05:54.214Z,0
2018-06-28T00:07:03.080Z,0
2018-06-28T00:08:11.942Z,0
2018-06-28T00:09:20.802Z,0
2018-06-28T00:10:29.952Z,0
2018-06-28T00:11:38.817Z,0
2018-06-28T00:12:47.682Z,0
2018-06-28T00:13:56.545Z,0
2018-06-28T00:15:05.683Z,0
2018-06-28T00:16:14.898Z,0
2018-06-28T00:17:23.763Z,0
2018-06-28T00:18:32.901Z,0
2018-06-28T00:19:42.047Z,0
2018-06-28T00:20:51.186Z,0
2018-06-28T00:22:00.104Z,0
2018-06-28T00:23:08.987Z,0
2018-06-28T00:24:17.859Z,0
2018-06-28T00:25:26.999Z,0
2018-06-28T00:26:35.863Z,0
2018-06-28T00:27:45.078Z,0
2018-06-28T00:28:53.941Z,0
2018-06-28T00:30:02.803Z,0
2018-06-28T00:31:11.941Z,0
2018-06-28T00:32:20.806Z,0
2018-06-28T00:33:29.770Z,0
2018-06-28T00:34:38.908Z,0
2018-06-28T00:35:47.773Z,0
2018-06-28T00:36:56.634Z,0
2018-06-28T00:38:05.500Z,0
2018-06-28T00:39:14.690Z,0
2018-06-28T00:40:23.556Z,0
2018-06-28T00:41:32.419Z,0
2018-06-28T00:42:41.559Z,0
2018-06-28T00:43:51.064Z,0
2018-06-28T00:45:00.132Z,0
2018-06-28T00:46:08.998Z,0
2018-06-28T00:47:17.862Z,0
2018-06-28T00:48:26.721Z,0
2018-06-28T00:49:35.586Z,0
2018-06-28T00:50:44.828Z,0
2018-06-28T00:51:53.697Z,0
2018-06-28T00:53:02.840Z,0
2018-06-28T00:54:11.702Z,0
2018-06-28T00:55:20.564Z,0
2018-06-28T00:56:29.776Z,0
2018-06-28T00:57:38.645Z,0
2018-06-28T00:58:47.507Z,0
2018-06-28T00:59:56.371Z,0
2018-06-28T01:01:05.233Z,0
2018-06-28T01:02:14.822Z,0
2018-06-28T01:03:23.684Z,0
2018-06-28T01:04:32.823Z,0
2018-06-28T01:05:41.968Z,0
2018-06-28T01:06:50.826Z,0
2018-06-28T01:07:59.837Z,0
2018-06-28T01:09:08.700Z,0
2018-06-28T01:10:17.889Z,0
2018-06-28T01:11:26.699Z,0
2018-06-28T01:12:35.564Z,0
2018-06-28T01:13:44.425Z,0
2018-06-28T01:14:53.288Z,0
2018-06-28T01:16:02.151Z,0
2018-06-28T01:17:11.018Z,0
2018-06-28T01:18:20.161Z,0
2018-06-28T01:19:29.310Z,0
2018-06-28T01:20:38.172Z,0
2018-06-28T01:21:47.036Z,0
2018-06-28T01:22:55.898Z,0
2018-06-28T01:24:04.757Z,0
2018-06-28T01:25:13.870Z,0
2018-06-28T01:26:22.732Z,0
2018-06-28T01:27:31.870Z,0
2018-06-28T01:28:40.734Z,0
2018-06-28T01:29:49.596Z,0
2018-06-28T01:30:58.609Z,0
2018-06-28T01:32:07.472Z,0
2018-06-28T01:33:16.335Z,0
2018-06-28T01:34:25.196Z,0
2018-06-28T01:35:34.336Z,0
2018-06-28T01:36:43.198Z,0
2018-06-28T01:37:52.061Z,0
2018-06-28T01:39:01.203Z,0
2018-06-28T01:40:10.165Z,0
2018-06-28T01:41:19.031Z,0
2018-06-28T01:42:27.893Z,0
2018-06-28T01:43:37.029Z,0
2018-06-28T01:44:45.893Z,0
2018-06-28T01:45:55.041Z,0
2018-06-28T01:47:04.364Z,0
2018-06-28T01:48:13.374Z,0
2018-06-28T01:49:22.236Z,0
2018-06-28T01:50:31.106Z,0
2018-06-28T01:51:39.969Z,0
2018-06-28T01:52:48.830Z,0
2018-06-28T01:53:57.692Z,0
2018-06-28T01:55:06.558Z,0
2018-06-28T01:56:15.979Z,0
2018-06-28T01:57:24.839Z,0
2018-06-28T01:58:33.702Z,0
2018-06-28T01:59:42.913Z,0
2018-06-28T02:00:51.775Z,0
2018-06-28T02:02:00.921Z,0
2018-06-28T02:03:10.058Z,0
2018-06-28T02:04:18.922Z,0
2018-06-28T02:05:27.837Z,0
2018-06-28T02:06:36.979Z,0
2018-06-28T02:07:45.842Z,0
2018-06-28T02:08:54.704Z,0
2018-06-28T02:10:03.847Z,0
2018-06-28T02:11:12.762Z,0
2018-06-28T02:12:21.623Z,0
2018-06-28T02:13:30.762Z,0
2018-06-28T02:14:39.910Z,0
2018-06-28T02:15:48.772Z,0
2018-06-28T02:16:58.108Z,0
2018-06-28T02:18:06.969Z,0
2018-06-28T02:19:15.830Z,0
2018-06-28T02:20:24.693Z,0
2018-06-28T02:21:33.558Z,0
2018-06-28T02:22:43.072Z,0
2018-06-28T02:23:52.221Z,0
2018-06-28T02:25:01.359Z,0
2018-06-28T02:26:10.230Z,0
2018-06-28T02:27:19.094Z,0
2018-06-28T02:28:28.235Z,0
2018-06-28T02:29:37.099Z,0
2018-06-28T02:30:45.962Z,0
2018-06-28T02:31:55.381Z,0
2018-06-28T02:33:04.299Z,0
2018-06-28T02:34:13.163Z,0
2018-06-28T02:35:22.581Z,0
2018-06-28T02:36:32.003Z,0
2018-06-28T02:37:41.162Z,0
2018-06-28T02:38:50.021Z,0
2018-06-28T02:39:59.490Z,0
2018-06-28T02:41:08.643Z,0
2018-06-28T02:42:17.778Z,0
2018-06-28T02:43:26.932Z,0
2018-06-28T02:44:36.062Z,0
2018-06-28T02:45:45.638Z,0
2018-06-28T02:46:55.617Z,0
2018-06-28T02:48:05.031Z,0
2018-06-28T02:49:14.172Z,0
2018-06-28T02:50:23.312Z,0
2018-06-28T02:51:32.913Z,0
2018-06-28T02:52:41.775Z,0
2018-06-28T02:53:50.920Z,5
2018-06-28T02:55:00.391Z,5
2018-06-28T02:56:09.261Z,5
2018-06-28T02:57:18.502Z,5
2018-06-28T02:58:27.924Z,5
2018-06-28T02:59:37.063Z,5
2018-06-28T03:00:46.492Z,5
2018-06-28T03:01:55.366Z,5
2018-06-28T03:03:04.336Z,5
2018-06-28T03:04:13.480Z,10
2018-06-28T03:05:22.616Z,10
2018-06-28T03:06:32.034Z,10
2018-06-28T03:07:40.896Z,10
2018-06-28T03:08:49.759Z,10
2018-06-28T03:09:58.899Z,10
2018-06-28T03:11:08.057Z,10
2018-06-28T03:12:17.199Z,15
2018-06-28T03:13:26.337Z,15
2018-06-28T03:14:35.630Z,15
2018-06-28T03:15:44.769Z,15
2018-06-28T03:16:54.476Z,20
2018-06-28T03:18:03.625Z,20
2018-06-28T03:19:13.043Z,20
2018-06-28T03:20:22.056Z,20
2018-06-28T03:21:30.919Z,20
2018-06-28T03:22:39.785Z,25
2018-06-28T03:23:49.209Z,25
2018-06-28T03:24:58.122Z,25
2018-06-28T03:26:07.084Z,25
2018-06-28T03:27:15.947Z,30
2018-06-28T03:28:24.808Z,30
2018-06-28T03:29:33.736Z,30
2018-06-28T03:30:42.896Z,30
2018-06-28T03:31:52.355Z,35
2018-06-28T03:33:01.216Z,35
2018-06-28T03:34:10.078Z,35
2018-06-28T03:35:19.226Z,40
2018-06-28T03:36:28.088Z,40
2018-06-28T03:37:37.104Z,40
2018-06-28T03:38:45.912Z,45
2018-06-28T03:39:54.774Z,45
2018-06-28T03:41:03.917Z,45
2018-06-28T03:42:12.779Z,50
2018-06-28T03:43:21.919Z,50
2018-06-28T03:44:31.058Z,55
2018-06-28T03:45:39.920Z,55
2018-06-28T03:46:49.057Z,55
2018-06-28T03:47:58.193Z,60
2018-06-28T03:49:07.485Z,60
2018-06-28T03:50:16.350Z,60
2018-06-28T03:51:25.213Z,65
2018-06-28T03:52:34.073Z,65
2018-06-28T03:53:42.937Z,65
2018-06-28T03:54:51.798Z,65
2018-06-28T03:56:00.661Z,70
2018-06-28T03:57:09.821Z,70
2018-06-28T03:58:18.681Z,70
2018-06-28T03:59:27.544Z,70
2018-06-28T04:00:36.557Z,75
2018-06-28T04:01:45.977Z,75
2018-06-28T04:02:55.114Z,75
2018-06-28T04:04:03.976Z,75
2018-06-28T04:05:12.838Z,80
2018-06-28T04:06:22.079Z,80
2018-06-28T04:07:31.225Z,80
2018-06-28T04:08:40.082Z,80
2018-06-28T04:09:48.947Z,85
2018-06-28T04:10:58.087Z,85
2018-06-28T04:12:07.294Z,85
2018-06-28T04:13:16.434Z,85
2018-06-28T04:14:25.293Z,90
2018-06-28T04:15:34.156Z,90
2018-06-28T04:16:43.065Z,90
2018-06-28T04:17:52.032Z,90
2018-06-28T04:19:01.182Z,90
2018-06-28T04:20:10.051Z,95
2018-06-28T04:21:18.914Z,95
2018-06-28T04:22:27.776Z,95
2018-06-28T04:23:36.787Z,95
2018-06-28T04:24:45.648Z,95
2018-06-28T04:25:54.788Z,95
2018-06-28T04:27:03.652Z,100
2018-06-28T04:28:12.513Z,95
2018-06-28T04:29:21.524Z,95
2018-06-28T04:30:30.385Z,100
2018-06-28T04:31:39.247Z,100
2018-06-28T04:32:48.109Z,100
2018-06-28T04:33:57.248Z,100
2018-06-28T04:35:06.258Z,100
2018-06-28T04:36:15.673Z,105
2018-06-28T04:37:24.538Z,110
2018-06-28T04:38:33.399Z,105
2018-06-28T04:39:42.531Z,105
2018-06-28T04:40:51.404Z,105
2018-06-28T04:42:00.547Z,105
2018-06-28T04:43:09.694Z,110
2018-06-28T04:44:18.560Z,110
2018-06-28T04:45:27.426Z,110
2018-06-28T04:46:36.616Z,110
2018-06-28T04:47:45.481Z,110
2018-06-28T04:48:54.344Z,110
2018-06-28T04:50:03.602Z,110
2018-06-28T04:51:12.740Z,115
2018-06-28T04:52:21.753Z,115
2018-06-28T04:53:30.896Z,115
2018-06-28T04:54:39.757Z,115
2018-06-28T04:55:48.620Z,115
2018-06-28T04:56:57.480Z,115
2018-06-28T04:58:06.977Z,115
2018-06-28T04:59:15.839Z,120
2018-06-28T05:00:24.980Z,120
2018-06-28T05:01:33.844Z,120
2018-06-28T05:02:42.703Z,120
2018-06-28T05:03:52.196Z,120
2018-06-28T05:05:01.058Z,120
2018-06-28T05:06:09.918Z,125
2018-06-28T05:07:19.065Z,125
2018-06-28T05:08:27.921Z,125
2018-06-28T05:09:36.886Z,125
2018-06-28T05:10:45.748Z,125
2018-06-28T05:11:54.613Z,125
2018-06-28T05:13:03.480Z,125
2018-06-28T05:14:12.340Z,125
2018-06-28T05:15:21.499Z,130
2018-06-28T05:16:30.635Z,130
2018-06-28T05:17:39.497Z,130
2018-06-28T05:18:48.359Z,130
2018-06-28T05:19:57.223Z,130
2018-06-28T05:21:06.439Z,130
2018-06-28T05:22:15.577Z,130
2018-06-28T05:23:24.817Z,130
2018-06-28T05:24:34.020Z,130
2018-06-28T05:25:43.168Z,130
2018-06-28T05:26:52.080Z,130
2018-06-28T05:28:00.945Z,130
2018-06-28T05:29:09.810Z,140
2018-06-28T05:30:18.673Z,135
2018-06-28T05:31:27.534Z,135
2018-06-28T05:32:36.497Z,135
2018-06-28T05:33:45.637Z,135
2018-06-28T05:34:54.565Z,135
2018-06-28T05:36:03.637Z,135
2018-06-28T05:37:12.505Z,135
2018-06-28T05:38:21.715Z,135
2018-06-28T05:39:30.576Z,135
2018-06-28T05:40:39.438Z,135
2018-06-28T05:41:48.577Z,135
2018-06-28T05:42:57.440Z,140
2018-06-28T05:44:06.355Z,140
2018-06-28T05:45:15.495Z,140
2018-06-28T05:46:24.358Z,140
2018-06-28T05:47:33.219Z,140
2018-06-28T05:48:42.083Z,140
2018-06-28T05:49:51.114Z,140
2018-06-28T05:50:59.976Z,140
2018-06-28T05:52:08.839Z,140
2018-06-28T05:53:17.986Z,140
2018-06-28T05:54:26.934Z,145
2018-06-28T05:55:35.898Z,145
2018-06-28T05:56:44.760Z,145
2018-06-28T05:57:53.620Z,145
2018-06-28T05:59:02.764Z,145
2018-06-28T06:00:11.920Z,145
2018-06-28T06:01:20.966Z,145
2018-06-28T06:02:29.738Z,145
2018-06-28T06:03:38.608Z,145
2018-06-28T06:04:47.471Z,150
2018-06-28T06:05:56.332Z,145
2018-06-28T06:07:05.244Z,150
2018-06-28T06:08:14.657Z,150
2018-06-28T06:09:23.547Z,150
2018-06-28T06:10:33.033Z,150
2018-06-28T06:11:41.898Z,150
2018-06-28T06:12:51.041Z,150
2018-06-28T06:13:59.905Z,150
2018-06-28T06:15:09.044Z,150
2018-06-28T06:16:17.906Z,150
2018-06-28T06:17:27.042Z,150
2018-06-28T06:18:35.949Z,150
2018-06-28T06:19:44.771Z,150
2018-06-28T06:20:53.913Z,150
2018-06-28T06:22:03.052Z,150
2018-06-28T06:23:12.484Z,155
2018-06-28T06:24:21.347Z,155
2018-06-28T06:25:30.484Z,155
2018-06-28T06:26:39.349Z,155
2018-06-28T06:27:48.212Z,155
2018-06-28T06:28:57.350Z,155
2018-06-28T06:30:06.217Z,155
2018-06-28T06:31:15.079Z,155
2018-06-28T06:32:23.947Z,155
2018-06-28T06:33:32.810Z,155
2018-06-28T06:34:41.954Z,155
2018-06-28T06:35:51.369Z,155
2018-06-28T06:37:00.234Z,155
2018-06-28T06:38:09.150Z,155
2018-06-28T06:39:18.012Z,160
2018-06-28T06:40:27.488Z,160
2018-06-28T06:41:36.351Z,160
2018-06-28T06:42:45.486Z,160
2018-06-28T06:43:54.699Z,160
2018-06-28T06:45:03.899Z,155
2018-06-28T06:46:12.760Z,155
2018-06-28T06:47:21.622Z,155
2018-06-28T06:48:30.779Z,155
2018-06-28T06:49:40.375Z,155
2018-06-28T06:50:49.520Z,155
2018-06-28T06:51:58.383Z,155
2018-06-28T06:53:07.251Z,155
2018-06-28T06:54:16.394Z,155
2018-06-28T06:55:25.317Z,160
2018-06-28T06:56:34.180Z,160
2018-06-28T06:57:43.056Z,160
2018-06-28T06:58:51.908Z,160
2018-06-28T07:00:00.771Z,160
2018-06-28T07:01:09.636Z,160
2018-06-28T07:02:18.498Z,160
2018-06-28T07:03:27.661Z,160
2018-06-28T07:04:36.929Z,160
2018-06-28T07:05:46.065Z,160
2018-06-28T07:06:55.636Z,160
2018-06-28T07:08:04.919Z,160
2018-06-28T07:09:14.102Z,160
2018-06-28T07:10:23.378Z,160
2018-06-28T07:11:32.526Z,160
2018-06-28T07:12:42.313Z,165
2018-06-28T07:13:51.398Z,165
2018-06-28T07:15:00.906Z,165
2018-06-28T07:16:10.314Z,165
2018-06-28T07:17:19.481Z,165
2018-06-28T07:18:28.956Z,165
2018-06-28T07:19:38.312Z,165
2018-06-28T07:20:47.302Z,165
2018-06-28T07:21:56.263Z,165
2018-06-28T07:23:05.747Z,165
2018-06-28T07:24:14.852Z,165
2018-06-28T07:25:24.012Z,165
2018-06-28T07:26:33.207Z,165
2018-06-28T07:27:42.073Z,170
2018-06-28T07:28:51.312Z,165
2018-06-28T07:30:00.324Z,170
2018-06-28T07:31:09.195Z,170
2018-06-28T07:32:18.059Z,170
2018-06-28T07:33:27.211Z,170
2018-06-28T07:34:36.352Z,170
2018-06-28T07:35:45.612Z,170
2018-06-28T07:36:54.475Z,170
2018-06-28T07:38:03.343Z,170
2018-06-28T07:39:12.204Z,170
2018-06-28T07:40:21.069Z,170
2018-06-28T07:41:30.034Z,170
2018-06-28T07:42:39.452Z,170
2018-06-28T07:43:48.763Z,170
2018-06-28T07:44:57.907Z,175
2018-06-28T07:46:06.773Z,175
2018-06-28T07:47:16.152Z,170
2018-06-28T07:48:25.297Z,175
2018-06-28T07:49:34.435Z,175
2018-06-28T07:50:43.302Z,175
2018-06-28T07:51:52.165Z,175
2018-06-28T07:53:01.557Z,175
2018-06-28T07:54:10.700Z,175
2018-06-28T07:55:20.151Z,175
2018-06-28T07:56:28.996Z,175
2018-06-28T07:57:38.138Z,175
2018-06-28T07:58:47.307Z,175
2018-06-28T07:59:56.177Z,175
2018-06-28T08:01:05.594Z,175
2018-06-28T08:02:14.744Z,175
2018-06-28T08:03:24.160Z,175
2018-06-28T08:04:33.025Z,175
2018-06-28T08:05:41.888Z,175
2018-06-28T08:06:50.752Z,175
2018-06-28T08:07:59.616Z,175
2018-06-28T08:09:08.481Z,175
2018-06-28T08:10:17.947Z,175
2018-06-28T08:11:26.816Z,175
2018-06-28T08:12:35.963Z,175
2018-06-28T08:13:44.828Z,175
2018-06-28T08:14:53.693Z,175
2018-06-28T08:16:02.935Z,175
2018-06-28T08:17:11.802Z,175
2018-06-28T08:18:20.667Z,175
2018-06-28T08:19:29.533Z,175
2018-06-28T08:20:38.673Z,180
2018-06-28T08:21:47.641Z,180
2018-06-28T08:22:56.504Z,175
2018-06-28T08:24:05.972Z,175
2018-06-28T08:25:15.114Z,175
2018-06-28T08:26:23.978Z,175
2018-06-28T08:27:33.168Z,175
2018-06-28T08:28:42.310Z,175
2018-06-28T08:29:51.177Z,180
2018-06-28T08:31:00.053Z,180
2018-06-28T08:32:09.203Z,180
2018-06-28T08:33:18.116Z,180
2018-06-28T08:34:26.986Z,185
2018-06-28T08:35:36.128Z,180
2018-06-28T08:36:44.990Z,180
2018-06-28T08:37:53.854Z,180
2018-06-28T08:39:02.871Z,180
2018-06-28T08:40:11.734Z,180
2018-06-28T08:41:20.651Z,180
2018-06-28T08:42:29.832Z,180
2018-06-28T08:43:38.696Z,180
2018-06-28T08:44:47.614Z,180
2018-06-28T08:45:56.756Z,180
2018-06-28T08:47:05.907Z,180
2018-06-28T08:48:14.766Z,180
2018-06-28T08:49:23.631Z,180
2018-06-28T08:50:32.649Z,180
2018-06-28T08:51:41.510Z,180
2018-06-28T08:52:50.654Z,180
2018-06-28T08:53:59.518Z,185
2018-06-28T08:55:08.662Z,185
2018-06-28T08:56:17.678Z,185
2018-06-28T08:57:26.821Z,185
2018-06-28T08:58:35.965Z,185
2018-06-28T08:59:44.831Z,185
2018-06-28T09:00:53.979Z,185
2018-06-28T09:02:03.523Z,185
2018-06-28T09:03:12.664Z,185
2018-06-28T09:04:21.581Z,185
2018-06-28T09:05:30.726Z,185
2018-06-28T09:06:39.592Z,185
2018-06-28T09:07:48.556Z,185
2018-06-28T09:08:57.423Z,190
2018-06-28T09:10:06.851Z,190
2018-06-28T09:11:15.998Z,190
2018-06-28T09:12:24.861Z,190
2018-06-28T09:13:33.727Z,190
2018-06-28T09:14:42.590Z,190
2018-06-28T09:15:51.457Z,190
2018-06-28T09:17:00.599Z,190
2018-06-28T09:18:09.748Z,190
2018-06-28T09:19:18.662Z,195
2018-06-28T09:20:27.527Z,195
2018-06-28T09:21:36.392Z,195
2018-06-28T09:22:46.250Z,195
2018-06-28T09:23:54.933Z,195
2018-06-28T09:25:03.902Z,195
2018-06-28T09:26:13.046Z,195
2018-06-28T09:27:21.909Z,195
2018-06-28T09:28:30.778Z,195
2018-06-28T09:29:39.929Z,200
2018-06-28T09:30:48.949Z,200
2018-06-28T09:31:57.815Z,200
2018-06-28T09:33:06.682Z,200
2018-06-28T09:34:15.548Z,200
2018-06-28T09:35:25.644Z,200
2018-06-28T09:36:34.876Z,200
2018-06-28T09:37:43.822Z,200
2018-06-28T09:38:52.879Z,200
2018-06-28T09:40:01.746Z,205
2018-06-28T09:41:10.612Z,205
2018-06-28T09:42:19.909Z,205
2018-06-28T09:43:28.846Z,205
2018-06-28T09:44:37.716Z,205
2018-06-28T09:45:46.589Z,205
2018-06-28T09:46:55.722Z,205
2018-06-28T09:48:04.936Z,205
2018-06-28T09:49:13.840Z,205
2018-06-28T09:50:22.876Z,205
2018-06-28T09:51:32.039Z,205
2018-06-28T09:52:41.084Z,210
2018-06-28T09:53:50.178Z,210
2018-06-28T09:54:59.564Z,210
2018-06-28T09:56:08.722Z,225
2018-06-28T09:57:18.029Z,220
2018-06-28T09:58:26.896Z,210
2018-06-28T09:59:36.547Z,210
2018-06-28T10:00:45.468Z,210
2018-06-28T10:01:54.332Z,215
2018-06-28T10:03:03.198Z,215
2018-06-28T10:04:12.071Z,215
2018-06-28T10:05:21.525Z,215
2018-06-28T10:06:30.391Z,215
2018-06-28T10:07:39.257Z,215
2018-06-28T10:08:48.453Z,215
2018-06-28T10:09:57.321Z,215
2018-06-28T10:11:06.239Z,215
2018-06-28T10:12:15.292Z,215
2018-06-28T10:13:24.776Z,220
2018-06-28T10:14:33.926Z,220
2018-06-28T10:15:43.216Z,220
2018-06-28T10:16:52.608Z,220
2018-06-28T10:18:02.046Z,220
2018-06-28T10:19:10.919Z,220
2018-06-28T10:20:20.066Z,220
2018-06-28T10:21:28.926Z,220
2018-06-28T10:22:38.447Z,225
2018-06-28T10:23:47.313Z,225
2018-06-28T10:24:56.220Z,225
2018-06-28T10:26:05.324Z,225
2018-06-28T10:27:14.193Z,225
2018-06-28T10:28:23.410Z,225
2018-06-28T10:29:32.553Z,230
2018-06-28T10:30:41.696Z,230
2018-06-28T10:31:50.563Z,230
2018-06-28T10:32:59.434Z,230
2018-06-28T10:34:08.300Z,230
2018-06-28T10:35:17.442Z,230
2018-06-28T10:36:26.310Z,230
2018-06-28T10:37:35.182Z,230
2018-06-28T10:38:44.608Z,230
2018-06-28T10:39:53.820Z,230
2018-06-28T10:41:03.141Z,230
2018-06-28T10:42:11.937Z,235
2018-06-28T10:43:20.804Z,235
2018-06-28T10:44:29.670Z,240
2018-06-28T10:45:38.786Z,245
2018-06-28T10:46:48.205Z,245
2018-06-28T10:47:57.070Z,245
2018-06-28T10:49:05.937Z,250
2018-06-28T10:50:15.081Z,245
2018-06-28T10:51:24.097Z,245
2018-06-28T10:52:32.968Z,245
2018-06-28T10:53:41.834Z,245
2018-06-28T10:54:50.702Z,245
2018-06-28T10:55:59.568Z,245
2018-06-28T10:57:08.862Z,250
2018-06-28T10:58:17.728Z,250
2018-06-28T10:59:26.600Z,250
2018-06-28T11:00:35.464Z,250
2018-06-28T11:01:44.714Z,255
2018-06-28T11:02:53.550Z,260
2018-06-28T11:04:02.421Z,260
2018-06-28T11:05:11.322Z,265
2018-06-28T11:06:20.236Z,265
2018-06-28T11:07:29.581Z,270
2018-06-28T11:08:38.788Z,275
2018-06-28T11:09:47.932Z,280
2018-06-28T11:10:57.075Z,285
2018-06-28T11:12:05.943Z,290
2018-06-28T11:13:14.865Z,285
2018-06-28T11:14:23.928Z,280
2018-06-28T11:15:32.959Z,275
2018-06-28T11:16:42.625Z,275
2018-06-28T11:17:51.475Z,270
2018-06-28T11:19:00.654Z,265
2018-06-28T11:20:09.662Z,265
2018-06-28T11:21:18.875Z,265
2018-06-28T11:22:27.752Z,265
2018-06-28T11:23:36.630Z,260
2018-06-28T11:24:45.811Z,260
2018-06-28T11:25:55.484Z,270
2018-06-28T11:27:04.354Z,265
2018-06-28T11:28:13.496Z,265
2018-06-28T11:29:22.371Z,270
2018-06-28T11:30:31.264Z,275
2018-06-28T11:31:40.946Z,285
2018-06-28T11:32:49.818Z,290
2018-06-28T11:33:58.697Z,300
2018-06-28T11:35:07.581Z,300
2018-06-28T11:36:17.124Z,305
2018-06-28T11:37:26.422Z,310
2018-06-28T11:38:35.287Z,305
2018-06-28T11:39:44.166Z,320
2018-06-28T11:40:53.310Z,330
2018-06-28T11:42:02.464Z,345
2018-06-28T11:43:11.534Z,345
2018-06-28T11:44:20.398Z,345
2018-06-28T11:45:29.548Z,355
2018-06-28T11:46:38.415Z,365
2018-06-28T11:47:47.282Z,375
2018-06-28T11:48:56.151Z,370
2018-06-28T11:50:05.855Z,375
2018-06-28T11:51:15.014Z,370
2018-06-28T11:52:24.255Z,380
2018-06-28T11:53:33.425Z,390
2018-06-28T11:54:42.294Z,405
2018-06-28T11:55:51.208Z,430
2018-06-28T11:57:00.086Z,1165
2018-06-28T11:58:09.253Z,2875
2018-06-28T11:59:18.178Z,3175
2018-06-28T12:00:27.073Z,3380
2018-06-28T12:01:36.049Z,3350
2018-06-28T12:02:45.443Z,2995
2018-06-28T12:03:54.312Z,2980
2018-06-28T12:05:03.459Z,3205
2018-06-28T12:06:12.608Z,3470
2018-06-28T12:07:21.765Z,3455
2018-06-28T12:08:30.883Z,3220
2018-06-28T12:09:39.755Z,3495
2018-06-28T12:10:48.628Z,3365
2018-06-28T12:11:57.502Z,3005
2018-06-28T12:13:06.373Z,2890
2018-06-28T12:14:15.294Z,3285
2018-06-28T12:15:24.195Z,3295
2018-06-28T12:16:33.043Z,3580
2018-06-28T12:17:42.469Z,3670
2018-06-28T12:18:51.625Z,3370
2018-06-28T12:20:00.652Z,3210
2018-06-28T12:21:09.809Z,3200
2018-06-28T12:22:19.020Z,3495
2018-06-28T12:23:27.842Z,3500
2018-06-28T12:24:37.006Z,3410
2018-06-28T12:25:45.884Z,3510
2018-06-28T12:26:54.761Z,3515
2018-06-28T12:28:03.982Z,3640
2018-06-28T12:29:12.855Z,3695
2018-06-28T12:30:22.006Z,3765
2018-06-28T12:31:30.885Z,3535
2018-06-28T12:32:40.594Z,3390
2018-06-28T12:33:49.468Z,4045
2018-06-28T12:34:58.345Z,4070
2018-06-28T12:36:07.327Z,3885
2018-06-28T12:37:16.471Z,3805
2018-06-28T12:38:25.350Z,3855
2018-06-28T12:39:34.228Z,3800
2018-06-28T12:40:43.111Z,3755
2018-06-28T12:41:51.989Z,3970
2018-06-28T12:43:01.068Z,3800
2018-06-28T12:44:09.949Z,3535
2018-06-28T12:45:18.837Z,3580
2018-06-28T12:46:28.071Z,3495
2018-06-28T12:47:36.916Z,3595
2018-06-28T12:48:46.072Z,3620
2018-06-28T12:49:55.228Z,3295
2018-06-28T12:51:04.108Z,3085
2018-06-28T12:52:12.988Z,3285
2018-06-28T12:53:21.866Z,3575
2018-06-28T12:54:31.102Z,3485
2018-06-28T12:55:40.257Z,3445
2018-06-28T12:56:49.140Z,3530
2018-06-28T12:57:58.574Z,3615
2018-06-28T12:59:07.452Z,3385
2018-06-28T13:00:16.386Z,3625
2018-06-28T13:01:25.267Z,3880
2018-06-28T13:02:34.147Z,3385
2018-06-28T13:03:43.031Z,3745
2018-06-28T13:04:51.907Z,3880
2018-06-28T13:06:00.891Z,3750
2018-06-28T13:07:09.887Z,3855
2018-06-28T13:08:19.048Z,3915
2018-06-28T13:09:27.928Z,3640
2018-06-28T13:10:36.816Z,3785
2018-06-28T13:11:45.748Z,3655
2018-06-28T13:12:54.699Z,3545
2018-06-28T13:14:03.516Z,3720
2018-06-28T13:15:12.399Z,3835
2018-06-28T13:16:21.282Z,3465
2018-06-28T13:17:30.316Z,3655
2018-06-28T13:18:39.545Z,2550
2018-06-28T13:19:48.652Z,3435
2018-06-28T13:20:57.812Z,3640
2018-06-28T13:22:06.696Z,3465
2018-06-28T13:23:15.675Z,3540
2018-06-28T13:24:24.554Z,3760
2018-06-28T13:25:33.440Z,3695
2018-06-28T13:26:42.322Z,3880
2018-06-28T13:27:51.201Z,3880
2018-06-28T13:29:00.193Z,4005
2018-06-28T13:30:09.375Z,4000
2018-06-28T13:31:18.257Z,3670
2018-06-28T13:32:27.419Z,3575
2018-06-28T13:33:36.669Z,3820
2018-06-28T13:34:45.750Z,3985
2018-06-28T13:35:54.633Z,3965
2018-06-28T13:37:04.900Z,3965
2018-06-28T13:38:15.139Z,3920
2018-06-28T13:39:26.543Z,4145
2018-06-28T13:40:36.509Z,4005
2018-06-28T13:41:47.568Z,4095
2018-06-28T13:42:56.749Z,4095
2018-06-28T13:44:05.753Z,4040
2018-06-28T13:45:14.769Z,3760
2018-06-28T13:46:24.051Z,4285
2018-06-28T13:47:33.513Z,4100
2018-06-28T13:48:42.680Z,3810
2018-06-28T13:49:51.580Z,4030
2018-06-28T13:51:00.463Z,3955
2018-06-28T13:52:09.460Z,3805
2018-06-28T13:53:18.380Z,3805
2018-06-28T13:54:27.266Z,3995
2018-06-28T13:55:36.164Z,3625
2018-06-28T13:56:45.327Z,3940
2018-06-28T13:57:54.271Z,3925
2018-06-28T13:59:03.157Z,3870
2018-06-28T14:00:12.043Z,4130
2018-06-28T14:01:20.925Z,3785
2018-06-28T14:02:29.820Z,3890
2018-06-28T14:03:38.708Z,3665
2018-06-28T14:04:47.595Z,3670
2018-06-28T14:05:56.790Z,3760
2018-06-28T14:07:05.681Z,3670
2018-06-28T14:08:14.842Z,3465
2018-06-28T14:09:23.930Z,3605
2018-06-28T14:10:33.105Z,3545
2018-06-28T14:11:42.272Z,3565
2018-06-28T14:12:51.176Z,3610
2018-06-28T14:14:00.095Z,3745
2018-06-28T14:15:09.004Z,3760
2018-06-28T14:16:17.917Z,3870
2018-06-28T14:17:26.800Z,3805
2018-06-28T14:18:36.299Z,3840
2018-06-28T14:19:45.136Z,3835
2018-06-28T14:20:54.025Z,3650
2018-06-28T14:22:02.960Z,3670
2018-06-28T14:23:11.831Z,3445
2018-06-28T14:24:20.722Z,3570
2018-06-28T14:25:29.670Z,3910
2018-06-28T14:26:38.811Z,3925
2018-06-28T14:27:47.729Z,3705
2018-06-28T14:28:56.676Z,3690
2018-06-28T14:30:05.574Z,3740
2018-06-28T14:31:14.474Z,3855
2018-06-28T14:32:23.510Z,3775
2018-06-28T14:33:32.411Z,3810
2018-06-28T14:34:41.314Z,4035
2018-06-28T14:35:50.243Z,4020
2018-06-28T14:36:59.160Z,3680
2018-06-28T14:38:08.456Z,3955
2018-06-28T14:39:17.423Z,4070
2018-06-28T14:40:26.585Z,3880
2018-06-28T14:41:35.545Z,1045
2018-06-28T14:42:44.389Z,3405
2018-06-28T14:43:53.423Z,720
2018-06-28T14:45:02.783Z,3865
2018-06-28T14:46:11.533Z,3890
2018-06-28T14:47:20.873Z,3810
2018-06-28T14:48:29.671Z,3835
2018-06-28T14:49:39.851Z,3800
2018-06-28T14:50:51.368Z,3110
2018-06-28T14:52:00.971Z,2170
2018-06-28T14:53:10.950Z,3740
2018-06-28T14:54:20.397Z,3715
2018-06-28T14:55:29.432Z,565
2018-06-28T14:56:38.596Z,2530
2018-06-28T14:57:47.477Z,3525
2018-06-28T14:58:56.362Z,3550
2018-06-28T15:00:05.520Z,3575
2018-06-28T15:01:14.757Z,3540
2018-06-28T15:02:23.916Z,3390
2018-06-28T15:03:32.798Z,3350
2018-06-28T15:04:41.963Z,3545
2018-06-28T15:05:50.851Z,3520
2018-06-28T15:07:00.063Z,3470
2018-06-28T15:08:08.952Z,3390
2018-06-28T15:09:17.849Z,3225
2018-06-28T15:10:26.737Z,2930
2018-06-28T15:11:35.619Z,2960
2018-06-28T15:12:44.661Z,2930
2018-06-28T15:13:53.551Z,3050
2018-06-28T15:15:02.752Z,3195
2018-06-28T15:16:11.918Z,3360
2018-06-28T15:17:21.080Z,3245
2018-06-28T15:18:30.015Z,3110
2018-06-28T15:19:38.901Z,3095
2018-06-28T15:20:47.787Z,2900
2018-06-28T15:21:56.948Z,2985
2018-06-28T15:23:05.860Z,3085
2018-06-28T15:24:14.746Z,3190
2018-06-28T15:25:23.631Z,1190
2018-06-28T15:26:32.516Z,2990
2018-06-28T15:27:41.727Z,650
2018-06-28T15:28:50.583Z,1560
2018-06-28T15:29:59.466Z,3035
2018-06-28T15:31:10.368Z,2915
2018-06-28T15:32:20.608Z,2930
2018-06-28T15:33:29.937Z,2870
2018-06-28T15:34:40.514Z,2840
2018-06-28T15:35:50.328Z,2875
2018-06-28T15:37:01.007Z,2910
2018-06-28T15:38:10.349Z,2845
2018-06-28T15:39:20.075Z,2885
2018-06-28T15:40:29.282Z,2800
2018-06-28T15:41:38.741Z,2760
2018-06-28T15:42:49.645Z,2800
2018-06-28T15:43:59.554Z,2855
2018-06-28T15:45:09.858Z,2745
2018-06-28T15:46:19.040Z,2695
2018-06-28T15:47:29.111Z,2810
2018-06-28T15:48:38.722Z,2750
2018-06-28T15:49:47.648Z,2590
2018-06-28T15:50:57.390Z,2625
2018-06-28T15:52:08.397Z,2560
2018-06-28T15:53:18.651Z,2700
2018-06-28T15:54:29.531Z,2740
2018-06-28T15:55:38.851Z,2650
2018-06-28T15:56:48.436Z,2795
2018-06-28T15:57:57.316Z,2785